Time;durP1;ratioP1;P1;durP2;ratioP2;P2;SDS_P1;SDS_P2;PMS_P1;PMS_P2;Temp;Humidity;BMP_temperature;BMP_pressure;BME280_temperature;BME280_humidity;BME280_pressure;Samples;Min_cycle;Max_cycle;Signal;HPM_P1;HPM_P2
2022/10/07 00:00:44;;;;;;;6.17;5.67;;;15.20;99.90;;;;;;10483236;23;20655;-80
2022/10/07 00:05:58;;;;;;;7.63;6.37;;;15.20;99.90;;;;;;10512181;28;20197;-81
2022/10/07 00:11:05;;;;;;;16.80;8.90;;;15.20;99.90;;;;;;10407219;28;20295;-81
2022/10/07 00:16:09;;;;;;;9.67;7.47;;;15.20;99.90;;;;;;10462761;28;20197;-81
2022/10/07 00:21:14;;;;;;;6.23;5.63;;;15.30;99.90;;;;;;10468863;28;20231;-81
2022/10/07 00:26:19;;;;;;;6.50;5.97;;;15.30;99.90;;;;;;10478326;28;20705;-79
2022/10/07 00:31:25;;;;;;;6.17;5.57;;;15.30;99.90;;;;;;10469232;28;20212;-78
2022/10/07 00:36:31;;;;;;;6.00;5.40;;;15.30;99.90;;;;;;10476281;28;20192;-78
2022/10/07 00:41:36;;;;;;;10.73;5.73;;;15.30;99.90;;;;;;10451020;28;20263;-79
2022/10/07 00:46:40;;;;;;;8.40;5.87;;;15.40;99.90;;;;;;10458195;28;20276;-79
2022/10/07 00:51:44;;;;;;;13.30;5.77;;;15.40;99.90;;;;;;10493523;28;20641;-79
2022/10/07 00:56:48;;;;;;;8.50;5.70;;;15.40;99.90;;;;;;10468235;28;20636;-78
2022/10/07 01:01:51;;;;;;;6.27;5.67;;;15.40;99.90;;;;;;10488113;28;20224;-79
2022/10/07 01:06:54;;;;;;;8.13;6.60;;;15.40;99.90;;;;;;10454261;28;20197;-78
2022/10/07 01:12:01;;;;;;;7.27;6.60;;;15.40;99.90;;;;;;10498194;28;20220;-79
2022/10/07 01:17:08;;;;;;;6.53;5.90;;;15.50;99.90;;;;;;10452289;28;20251;-79
2022/10/07 01:22:24;;;;;;;8.07;6.87;;;15.50;99.90;;;;;;10474247;28;20297;-79
2022/10/07 01:27:30;;;;;;;5.87;5.30;;;15.50;99.90;;;;;;10479138;28;20252;-79
2022/10/07 01:32:36;;;;;;;6.03;5.30;;;15.50;99.90;;;;;;10449694;28;20224;-78
2022/10/07 01:37:43;;;;;;;7.53;5.13;;;15.60;99.90;;;;;;10463252;28;20220;-78
2022/10/07 01:42:47;;;;;;;5.40;4.87;;;15.60;99.90;;;;;;10452327;28;20213;-78
2022/10/07 01:47:49;;;;;;;10.33;5.70;;;15.60;99.90;;;;;;10451004;28;20205;-78
2022/10/07 01:53:11;;;;;;;7.47;5.07;;;15.60;99.90;;;;;;10479062;28;20224;-78
2022/10/07 01:58:26;;;;;;;6.87;6.33;;;15.50;99.90;;;;;;10448771;28;20189;-78
2022/10/07 02:03:45;;;;;;;9.17;6.60;;;15.50;99.90;;;;;;10481583;28;20220;-78
2022/10/07 02:08:50;;;;;;;7.37;6.67;;;15.50;99.90;;;;;;10445674;28;20688;-78
2022/10/07 02:14:00;;;;;;;7.10;6.60;;;15.50;99.90;;;;;;10479095;28;20251;-78
2022/10/07 02:19:13;;;;;;;7.70;7.00;;;15.50;99.90;;;;;;10479448;28;20255;-79
2022/10/07 02:24:16;;;;;;;7.03;6.33;;;15.50;99.90;;;;;;10397060;28;20194;-78
2022/10/07 02:29:23;;;;;;;6.63;6.13;;;15.50;99.90;;;;;;10462042;28;20239;-78
2022/10/07 02:34:31;;;;;;;6.53;5.93;;;15.50;99.90;;;;;;10413768;28;20240;-79
2022/10/07 02:39:34;;;;;;;7.60;6.90;;;15.50;99.90;;;;;;10495907;28;20209;-78
2022/10/07 02:44:42;;;;;;;9.70;6.67;;;15.50;99.90;;;;;;10421465;28;20193;-78
2022/10/07 02:49:52;;;;;;;7.03;6.33;;;15.50;99.90;;;;;;10413673;28;20226;-79
2022/10/07 02:54:58;;;;;;;8.27;7.40;;;15.50;99.90;;;;;;10477223;28;20280;-78
2022/10/07 03:00:05;;;;;;;8.10;7.30;;;15.50;99.90;;;;;;10437617;28;20288;-80
2022/10/07 03:05:18;;;;;;;7.17;6.50;;;15.50;99.90;;;;;;10478790;28;20184;-81
2022/10/07 03:10:21;;;;;;;6.70;6.10;;;15.60;99.90;;;;;;10440713;28;20229;-80
2022/10/07 03:15:26;;;;;;;7.70;7.10;;;15.60;99.90;;;;;;10478271;28;20689;-80
2022/10/07 03:20:31;;;;;;;7.10;6.53;;;15.60;99.90;;;;;;10425076;28;20327;-81
2022/10/07 03:25:35;;;;;;;6.37;5.53;;;15.50;99.90;;;;;;10481888;28;20189;-80
2022/10/07 03:30:39;;;;;;;8.13;7.40;;;15.50;99.90;;;;;;10431752;28;20225;-81
2022/10/07 03:35:41;;;;;;;6.40;6.00;;;15.50;99.90;;;;;;10491768;28;20197;-80
2022/10/07 03:40:44;;;;;;;7.70;7.10;;;15.50;99.90;;;;;;10452784;28;20209;-80
2022/10/07 03:45:51;;;;;;;7.60;7.10;;;15.40;99.90;;;;;;10475470;28;20200;-80
2022/10/07 03:50:56;;;;;;;7.37;6.77;;;15.40;99.90;;;;;;10480304;28;20684;-80
2022/10/07 03:56:00;;;;;;;8.37;7.73;;;15.40;99.90;;;;;;10426145;28;20246;-80
2022/10/07 04:01:10;;;;;;;10.67;9.20;;;15.40;99.90;;;;;;10479639;28;20300;-80
2022/10/07 04:06:16;;;;;;;8.67;7.97;;;15.40;99.90;;;;;;10475275;28;20200;-80
2022/10/07 04:11:19;;;;;;;7.73;7.10;;;15.40;99.90;;;;;;10445073;28;20240;-81
2022/10/07 04:16:23;;;;;;;7.90;7.30;;;15.40;99.90;;;;;;10463127;28;20614;-79
2022/10/07 04:21:25;;;;;;;8.00;7.30;;;15.40;99.90;;;;;;10441125;28;20213;-81
2022/10/07 04:26:28;;;;;;;8.47;7.47;;;15.40;99.90;;;;;;10482301;28;20625;-80
2022/10/07 04:31:31;;;;;;;9.13;8.30;;;15.40;99.90;;;;;;10424303;28;20221;-81
2022/10/07 04:36:38;;;;;;;9.97;8.87;;;15.40;99.90;;;;;;10475519;28;20200;-81
2022/10/07 04:41:47;;;;;;;9.53;8.30;;;15.40;99.90;;;;;;10440546;28;20228;-81
2022/10/07 04:46:56;;;;;;;8.67;7.97;;;15.30;99.90;;;;;;10460762;28;20549;-80
2022/10/07 04:52:01;;;;;;;11.50;10.40;;;15.40;99.90;;;;;;10458624;28;20228;-82
2022/10/07 04:57:11;;;;;;;11.27;10.17;;;15.40;99.90;;;;;;10417539;28;20197;-82
2022/10/07 05:02:15;;;;;;;17.80;14.77;;;15.30;99.90;;;;;;10437055;28;20279;-81
2022/10/07 05:07:18;;;;;;;29.50;21.37;;;15.30;99.90;;;;;;10437441;28;20706;-82
2022/10/07 05:12:21;;;;;;;18.83;15.00;;;15.30;99.90;;;;;;10426804;28;20817;-81
2022/10/07 05:17:25;;;;;;;12.27;11.10;;;15.30;99.90;;;;;;10421231;28;20256;-81
2022/10/07 05:22:27;;;;;;;9.27;8.53;;;15.30;99.90;;;;;;10432991;28;20501;-82
2022/10/07 05:27:31;;;;;;;11.67;10.53;;;15.30;99.90;;;;;;10445044;28;20185;-81
2022/10/07 05:32:35;;;;;;;12.70;11.60;;;15.30;99.90;;;;;;10432952;28;20238;-81
2022/10/07 05:37:38;;;;;;;13.33;11.97;;;15.30;99.90;;;;;;10429405;28;20196;-82
2022/10/07 05:42:40;;;;;;;9.00;8.30;;;15.30;99.90;;;;;;10454496;28;20638;-81
2022/10/07 05:47:45;;;;;;;8.00;7.40;;;15.30;99.90;;;;;;10422518;28;20200;-81
2022/10/07 05:52:50;;;;;;;7.70;7.20;;;15.40;99.90;;;;;;10418746;28;20222;-82
2022/10/07 05:57:53;;;;;;;8.10;7.33;;;15.40;99.90;;;;;;10482115;28;20188;-81
2022/10/07 06:02:57;;;;;;;7.43;6.93;;;15.40;99.90;;;;;;10441966;23;20433;-79
2022/10/07 06:07:59;;;;;;;8.87;8.10;;;15.40;99.90;;;;;;10460540;28;20195;-79
2022/10/07 06:13:07;;;;;;;10.10;9.10;;;15.50;99.90;;;;;;10376840;28;20287;-79
2022/10/07 06:18:11;;;;;;;20.57;18.37;;;15.50;99.90;;;;;;10376773;28;20297;-79
2022/10/07 06:23:14;;;;;;;8.73;7.90;;;15.60;99.90;;;;;;10459868;28;20209;-80
2022/10/07 06:28:16;;;;;;;7.13;6.43;;;15.70;99.90;;;;;;10378726;28;20216;-80
2022/10/07 06:33:20;;;;;;;10.77;9.60;;;15.70;99.90;;;;;;10443760;28;20267;-79
2022/10/07 06:38:23;;;;;;;9.50;8.80;;;15.80;99.90;;;;;;10441287;28;20525;-79
2022/10/07 06:43:26;;;;;;;11.03;10.03;;;15.90;99.90;;;;;;10457600;28;20205;-79
2022/10/07 06:48:41;;;;;;;9.27;8.37;;;16.00;99.90;;;;;;10451257;28;20216;-79
2022/10/07 06:53:44;;;;;;;7.80;7.10;;;16.10;99.90;;;;;;10376183;28;20227;-79
2022/10/07 06:58:48;;;;;;;11.77;10.57;;;16.20;99.90;;;;;;10376610;28;20198;-80
2022/10/07 07:03:54;;;;;;;9.27;8.37;;;16.30;99.90;;;;;;10376198;28;20214;-79
2022/10/07 07:08:59;;;;;;;8.80;8.00;;;16.40;99.90;;;;;;10377075;28;20270;-79
2022/10/07 07:14:02;;;;;;;8.33;7.63;;;16.50;99.90;;;;;;10376722;28;20717;-79
2022/10/07 07:19:08;;;;;;;10.50;8.67;;;16.60;99.90;;;;;;10381463;28;20193;-79
2022/10/07 07:24:12;;;;;;;8.60;7.80;;;16.60;99.90;;;;;;10458279;28;20546;-79
2022/10/07 07:29:15;;;;;;;9.30;8.43;;;16.60;99.90;;;;;;10415999;28;20312;-79
2022/10/07 07:34:30;;;;;;;9.23;8.30;;;16.60;99.90;;;;;;10381673;28;20281;-79
2022/10/07 07:39:32;;;;;;;9.10;8.20;;;16.60;99.90;;;;;;10416447;28;20248;-79
2022/10/07 07:44:41;;;;;;;11.33;10.43;;;16.50;99.90;;;;;;10455973;28;20197;-79
2022/10/07 07:49:48;;;;;;;9.13;8.43;;;16.50;99.90;;;;;;10454891;28;20300;-78
2022/10/07 07:54:58;;;;;;;8.13;7.47;;;16.50;99.90;;;;;;10399626;28;20209;-79
2022/10/07 08:00:00;;;;;;;8.17;7.40;;;16.50;99.90;;;;;;10453042;28;20570;-79
2022/10/07 08:05:06;;;;;;;9.00;8.10;;;16.60;99.90;;;;;;10418111;28;20213;-82
2022/10/07 08:10:09;;;;;;;6.80;6.30;;;16.60;99.90;;;;;;10457292;28;20221;-79
2022/10/07 08:15:12;;;;;;;7.97;7.27;;;16.70;99.90;;;;;;10416108;28;20276;-79
2022/10/07 08:20:16;;;;;;;9.70;7.50;;;16.70;99.90;;;;;;10454280;28;20209;-79
2022/10/07 08:25:18;;;;;;;15.10;13.80;;;16.80;99.90;;;;;;10413734;28;20616;-77
2022/10/07 08:30:22;;;;;;;7.33;6.83;;;16.80;99.90;;;;;;10451794;28;20228;-78
2022/10/07 08:35:26;;;;;;;8.53;7.40;;;16.90;99.90;;;;;;10412665;28;20241;-78
2022/10/07 08:40:28;;;;;;;7.80;7.20;;;17.00;99.90;;;;;;10416064;28;20237;-82
2022/10/07 08:45:33;;;;;;;7.47;6.97;;;17.10;99.90;;;;;;10401143;28;20232;-82
2022/10/07 08:50:47;;;;;;;6.87;6.03;;;17.10;99.90;;;;;;10423326;28;20272;-79
2022/10/07 08:55:53;;;;;;;7.90;7.40;;;17.20;99.90;;;;;;10384272;28;20198;-79
2022/10/07 09:01:03;;;;;;;6.57;6.10;;;17.20;99.90;;;;;;10466216;28;20240;-81
2022/10/07 09:06:13;;;;;;;6.97;6.43;;;17.30;99.90;;;;;;10423878;28;20198;-80
2022/10/07 09:11:24;;;;;;;6.47;6.00;;;17.30;99.90;;;;;;10460427;28;20237;-77
2022/10/07 09:16:30;;;;;;;6.53;6.03;;;17.40;99.90;;;;;;10422550;28;20205;-80
2022/10/07 09:21:40;;;;;;;6.27;5.77;;;17.40;99.90;;;;;;10459768;28;20213;-79
2022/10/07 09:26:42;;;;;;;5.03;4.63;;;17.50;99.90;;;;;;10423597;28;20193;-80
2022/10/07 09:31:44;;;;;;;6.63;6.23;;;17.50;99.90;;;;;;10457363;28;20597;-81
2022/10/07 09:37:19;;;;;;;7.23;6.63;;;17.60;99.90;;;;;;10425982;28;20193;-79
2022/10/07 09:42:33;;;;;;;6.87;6.37;;;17.60;99.90;;;;;;10444964;28;20220;-80
2022/10/07 09:47:39;;;;;;;7.20;6.70;;;17.70;99.90;;;;;;10441602;28;20200;-79
2022/10/07 09:52:55;;;;;;;7.20;6.60;;;17.70;99.90;;;;;;10436483;28;20302;-79
2022/10/07 09:58:00;;;;;;;8.80;8.10;;;17.70;99.90;;;;;;10452213;28;20250;-80
2022/10/07 10:03:05;;;;;;;9.27;8.37;;;17.70;99.90;;;;;;10427649;28;20214;-79
2022/10/07 10:08:26;;;;;;;14.30;11.30;;;17.70;99.90;;;;;;10450734;28;20293;-79
2022/10/07 10:13:31;;;;;;;9.67;8.67;;;17.80;99.90;;;;;;10429485;28;20223;-79
2022/10/07 10:18:37;;;;;;;7.00;6.50;;;17.80;99.90;;;;;;10460218;28;20276;-79
2022/10/07 10:23:46;;;;;;;8.30;7.60;;;17.80;99.90;;;;;;10447379;28;20249;-79
2022/10/07 10:28:59;;;;;;;7.30;6.70;;;17.80;99.90;;;;;;10430973;28;20215;-80
2022/10/07 10:34:09;;;;;;;7.03;6.50;;;17.80;99.90;;;;;;10447927;28;20713;-81
2022/10/07 10:39:24;;;;;;;8.47;7.43;;;17.70;99.90;;;;;;10431867;28;20540;-81
2022/10/07 10:44:41;;;;;;;8.30;7.50;;;17.80;99.90;;;;;;10440956;28;20185;-80
2022/10/07 10:49:53;;;;;;;8.17;7.67;;;17.80;99.90;;;;;;10441047;28;20283;-79
2022/10/07 10:55:18;;;;;;;8.17;7.60;;;17.80;99.90;;;;;;10418672;28;20240;-81
2022/10/07 11:00:21;;;;;;;9.00;8.30;;;17.80;99.90;;;;;;10436802;28;20779;-79
2022/10/07 11:05:26;;;;;;;8.07;7.40;;;17.90;99.90;;;;;;10435507;28;20197;-77
2022/10/07 11:10:35;;;;;;;7.40;6.13;;;18.00;99.90;;;;;;10435381;28;20697;-77
2022/10/07 11:15:44;;;;;;;7.03;6.53;;;18.00;99.90;;;;;;10436176;28;20197;-78
2022/10/07 11:20:47;;;;;;;7.50;6.80;;;18.10;99.90;;;;;;10433476;28;20249;-77
2022/10/07 11:25:56;;;;;;;14.33;9.10;;;18.00;99.90;;;;;;10436624;28;20708;-79
2022/10/07 11:31:03;;;;;;;11.87;10.97;;;18.00;99.90;;;;;;10436082;28;20225;-78
2022/10/07 11:36:14;;;;;;;9.33;8.40;;;18.00;99.90;;;;;;10437505;28;20201;-78
2022/10/07 11:41:24;;;;;;;9.00;8.30;;;18.00;99.90;;;;;;10433246;28;20214;-78
2022/10/07 11:46:30;;;;;;;10.67;9.57;;;18.00;99.90;;;;;;10422431;28;20224;-79
2022/10/07 11:51:37;;;;;;;9.70;9.00;;;18.00;99.90;;;;;;10440270;28;20583;-79
2022/10/07 11:56:48;;;;;;;9.37;8.47;;;18.10;99.90;;;;;;10432575;28;20213;-79
2022/10/07 12:01:52;;;;;;;9.27;8.47;;;18.20;99.90;;;;;;10466096;23;20237;-82
2022/10/07 12:07:46;;;;;;;9.63;8.93;;;18.30;99.90;;;;;;10467498;28;20201;-82
2022/10/07 12:12:53;;;;;;;9.83;9.03;;;18.30;99.90;;;;;;10299507;28;20248;-82
2022/10/07 12:17:57;;;;;;;9.70;8.90;;;18.30;99.90;;;;;;10407282;28;20726;-80
2022/10/07 12:23:35;;;;;;;9.13;8.30;;;18.40;99.90;;;;;;10453668;28;20213;-82
2022/10/07 12:28:47;;;;;;;9.50;8.60;;;18.30;99.90;;;;;;10381421;28;20242;-82
2022/10/07 12:33:56;;;;;;;10.27;9.30;;;18.30;99.90;;;;;;10470570;28;20213;-81
2022/10/07 12:39:33;;;;;;;10.60;9.60;;;18.30;99.90;;;;;;10433055;28;20193;-81
2022/10/07 12:44:40;;;;;;;10.33;9.53;;;18.40;99.90;;;;;;10414937;28;20182;-81
2022/10/07 12:49:47;;;;;;;9.17;8.47;;;18.40;99.90;;;;;;10467279;28;20224;-80
2022/10/07 12:54:53;;;;;;;10.47;9.73;;;18.40;99.90;;;;;;10468919;28;20193;-81
2022/10/07 13:00:02;;;;;;;9.33;8.47;;;18.40;99.90;;;;;;10467353;28;20680;-80
2022/10/07 13:05:40;;;;;;;9.00;8.30;;;18.50;99.90;;;;;;10461390;28;20185;-80
2022/10/07 13:11:17;;;;;;;9.50;8.70;;;18.40;99.90;;;;;;10403512;28;20309;-81
2022/10/07 13:16:30;;;;;;;9.50;8.80;;;18.40;99.90;;;;;;10424547;28;20292;-80
2022/10/07 13:21:36;;;;;;;9.93;8.67;;;18.40;99.90;;;;;;10424265;28;20229;-80
2022/10/07 13:26:44;;;;;;;8.20;7.60;;;18.40;99.90;;;;;;10436678;28;20220;-81
2022/10/07 13:32:02;;;;;;;8.70;8.10;;;18.40;99.90;;;;;;10468087;28;20217;-82
2022/10/07 13:37:28;;;;;;;9.00;8.40;;;18.50;99.90;;;;;;10452762;28;20193;-80
2022/10/07 13:42:30;;;;;;;9.20;8.40;;;18.50;99.90;;;;;;10425896;28;20312;-80
2022/10/07 13:47:35;;;;;;;10.77;7.90;;;18.50;99.90;;;;;;10441247;28;20662;-81
2022/10/07 13:52:42;;;;;;;9.27;8.53;;;18.40;99.90;;;;;;10450908;28;20221;-80
2022/10/07 13:57:44;;;;;;;8.53;7.90;;;18.40;99.90;;;;;;10425882;28;20288;-80
2022/10/07 14:02:49;;;;;;;8.83;8.23;;;18.40;99.90;;;;;;10425671;28;20225;-81
2022/10/07 14:07:53;;;;;;;8.43;7.83;;;18.40;99.90;;;;;;10451561;28;20570;-81
2022/10/07 14:12:58;;;;;;;9.83;8.93;;;18.40;99.90;;;;;;10441181;28;20216;-81
2022/10/07 14:18:09;;;;;;;10.97;9.97;;;18.40;99.90;;;;;;10449542;28;20209;-80
2022/10/07 14:23:22;;;;;;;9.83;9.10;;;18.40;99.90;;;;;;10445561;28;20210;-81
2022/10/07 14:28:29;;;;;;;7.17;6.50;;;18.40;99.90;;;;;;10429531;28;20576;-80
2022/10/07 14:39:22;;;;;;;8.27;7.57;;;18.40;99.90;;;;;;10462668;28;20197;-81
2022/10/07 14:44:24;;;;;;;9.77;8.60;;;18.30;99.90;;;;;;10437891;28;20189;-82
2022/10/07 14:49:28;;;;;;;9.97;9.17;;;18.30;99.90;;;;;;10430190;28;20201;-81
2022/10/07 14:54:30;;;;;;;12.73;11.53;;;18.40;99.90;;;;;;10466290;28;20201;-81
2022/10/07 14:59:32;;;;;;;11.60;7.93;;;18.30;99.90;;;;;;10440734;28;20209;-82
2022/10/07 15:04:38;;;;;;;7.93;7.43;;;18.30;99.90;;;;;;10417209;28;20194;-81
2022/10/07 15:09:41;;;;;;;7.87;7.17;;;18.30;99.90;;;;;;10412274;28;20222;-81
2022/10/07 15:14:43;;;;;;;8.57;7.97;;;18.20;99.90;;;;;;10428256;28;20391;-82
2022/10/07 15:19:47;;;;;;;9.10;8.43;;;18.20;99.90;;;;;;10440686;28;20218;-82
2022/10/07 15:24:50;;;;;;;8.50;7.73;;;18.20;99.90;;;;;;10423349;28;20252;-82
2022/10/07 15:29:53;;;;;;;8.20;7.60;;;18.10;99.90;;;;;;10426794;28;20228;-82
2022/10/07 15:34:57;;;;;;;8.70;8.10;;;18.00;99.90;;;;;;10442341;28;20249;-81
2022/10/07 15:39:59;;;;;;;9.53;8.73;;;18.00;99.90;;;;;;10433450;28;20244;-81
2022/10/07 15:45:01;;;;;;;11.63;10.50;;;17.90;99.90;;;;;;10401046;28;20185;-81
2022/10/07 15:50:06;;;;;;;10.80;9.93;;;17.90;99.90;;;;;;10416690;28;20642;-82
2022/10/07 15:55:08;;;;;;;10.50;9.50;;;17.80;99.90;;;;;;10396930;28;20230;-81
2022/10/07 16:00:12;;;;;;;8.27;7.60;;;17.70;99.90;;;;;;10433819;28;20234;-83
2022/10/07 16:05:15;;;;;;;10.60;9.57;;;17.60;99.90;;;;;;10419153;28;20256;-82
2022/10/07 16:10:18;;;;;;;9.00;8.40;;;17.60;99.90;;;;;;10397247;28;20728;-83
2022/10/07 16:15:20;;;;;;;10.40;9.70;;;17.50;99.90;;;;;;10415651;28;20213;-82
2022/10/07 16:20:24;;;;;;;9.93;9.00;;;17.40;99.90;;;;;;10434500;28;20602;-81
2022/10/07 16:25:26;;;;;;;11.87;11.07;;;17.40;99.90;;;;;;10430851;28;20239;-83
2022/10/07 16:35:45;;;;;;;11.17;10.07;;;17.30;99.90;;;;;;10435754;28;20271;-83
2022/10/07 16:40:56;;;;;;;14.50;13.30;;;17.30;99.90;;;;;;10436031;28;20712;-84
2022/10/07 16:46:00;;;;;;;10.33;9.40;;;17.30;99.90;;;;;;10451887;28;20296;-84
2022/10/07 16:51:05;;;;;;;10.30;9.60;;;17.30;99.90;;;;;;10436805;28;20709;-83
2022/10/07 16:56:07;;;;;;;9.07;8.23;;;17.20;99.90;;;;;;10428806;28;20224;-83
2022/10/07 17:01:11;;;;;;;10.07;9.10;;;17.20;99.90;;;;;;10442560;28;20280;-81
2022/10/07 17:06:17;;;;;;;13.87;12.63;;;17.20;99.90;;;;;;10436511;28;20631;-83
2022/10/07 17:11:30;;;;;;;11.70;10.80;;;17.10;99.90;;;;;;10439457;28;20259;-82
2022/10/07 17:16:35;;;;;;;9.10;8.30;;;17.10;99.90;;;;;;10440835;28;20202;-82
2022/10/07 17:21:40;;;;;;;10.33;9.40;;;17.10;99.90;;;;;;10424423;28;20292;-83
2022/10/07 17:26:43;;;;;;;9.70;9.07;;;17.00;99.90;;;;;;10461387;28;20189;-83
2022/10/07 17:31:48;;;;;;;10.67;9.93;;;17.00;99.90;;;;;;10462083;28;20213;-82
2022/10/07 17:36:52;;;;;;;9.70;8.93;;;17.00;99.90;;;;;;10424514;28;20194;-82
2022/10/07 17:41:54;;;;;;;9.73;9.13;;;17.00;99.90;;;;;;10421749;28;20214;-81
2022/10/07 17:46:58;;;;;;;7.70;7.10;;;16.90;99.90;;;;;;10422496;28;20208;-83
2022/10/07 17:52:01;;;;;;;10.00;9.30;;;16.90;99.90;;;;;;10443106;28;20280;-83
2022/10/07 17:57:04;;;;;;;9.90;9.20;;;16.80;99.90;;;;;;10452040;28;20201;-82
2022/10/07 18:02:06;;;;;;;10.07;9.30;;;16.80;99.90;;;;;;10444856;28;20213;-82
2022/10/07 18:07:10;;;;;;;10.17;9.33;;;16.80;99.90;;;;;;10465762;28;20202;-82
2022/10/07 18:17:32;;;;;;;9.60;9.00;;;16.80;99.90;;;;;;10464634;28;20186;-82
2022/10/07 18:22:35;;;;;;;10.57;9.87;;;16.70;99.90;;;;;;10458921;28;20225;-81
2022/10/07 18:27:37;;;;;;;9.33;8.63;;;16.70;99.90;;;;;;10465477;28;20194;-81
2022/10/07 18:32:39;;;;;;;9.30;8.37;;;16.70;99.90;;;;;;10472162;28;20217;-79
2022/10/07 18:37:44;;;;;;;10.10;9.30;;;16.60;99.90;;;;;;10475088;28;20201;-81
2022/10/07 18:42:46;;;;;;;9.60;8.70;;;16.60;99.90;;;;;;10480424;28;20701;-80
2022/10/07 18:47:48;;;;;;;9.83;9.17;;;16.60;99.90;;;;;;10476695;28;20224;-81
2022/10/07 18:52:51;;;;;;;9.47;8.67;;;16.60;99.90;;;;;;10476274;28;20260;-80
2022/10/07 18:57:53;;;;;;;10.27;9.43;;;16.50;99.90;;;;;;10429289;28;20627;-83
2022/10/07 19:02:55;;;;;;;15.40;13.93;;;16.50;99.90;;;;;;10433592;28;20217;-83
2022/10/07 19:07:59;;;;;;;11.43;10.53;;;16.50;99.90;;;;;;10440901;28;20680;-81
2022/10/07 19:18:20;;;;;;;9.97;9.17;;;16.40;99.90;;;;;;10437719;28;20208;-83
2022/10/07 19:23:24;;;;;;;13.53;10.57;;;16.40;99.90;;;;;;10432845;28;20214;-82
2022/10/07 19:28:27;;;;;;;12.03;10.93;;;16.40;99.90;;;;;;10461688;28;20188;-80
2022/10/07 19:33:29;;;;;;;10.33;9.50;;;16.40;99.90;;;;;;10461143;28;20274;-83
2022/10/07 19:38:33;;;;;;;10.10;9.40;;;16.50;99.90;;;;;;10426276;28;20237;-83
2022/10/07 19:43:36;;;;;;;10.67;9.77;;;16.50;99.90;;;;;;10420533;28;20746;-82
2022/10/07 19:48:39;;;;;;;11.43;10.53;;;16.50;99.90;;;;;;10426937;28;20208;-82
2022/10/07 19:53:43;;;;;;;14.60;12.50;;;16.50;99.90;;;;;;10460946;28;20708;-83
2022/10/07 19:58:47;;;;;;;11.03;10.23;;;16.50;99.90;;;;;;10458203;28;20617;-81
2022/10/07 20:03:55;;;;;;;11.90;10.80;;;16.50;99.90;;;;;;10442305;28;20223;-83
2022/10/07 20:08:59;;;;;;;12.27;11.27;;;16.60;99.90;;;;;;10441842;28;20198;-83
2022/10/07 20:14:02;;;;;;;12.90;11.67;;;16.60;99.90;;;;;;10433045;28;20217;-82
2022/10/07 20:19:06;;;;;;;13.97;12.80;;;16.60;99.90;;;;;;10459972;28;20602;-82
2022/10/07 20:24:14;;;;;;;13.20;12.10;;;16.60;99.90;;;;;;10444285;28;20693;-82
2022/10/07 20:29:16;;;;;;;14.33;13.13;;;16.60;99.90;;;;;;10442942;28;20190;-82
2022/10/07 20:34:19;;;;;;;13.37;12.20;;;16.60;99.90;;;;;;10439087;28;20228;-83
2022/10/07 20:44:41;;;;;;;13.90;12.67;;;16.50;99.90;;;;;;10451861;28;20193;-82
2022/10/07 20:49:43;;;;;;;12.90;11.80;;;16.50;99.90;;;;;;10434463;28;20288;-80
2022/10/07 20:54:48;;;;;;;13.03;11.83;;;16.50;99.90;;;;;;10459468;28;20221;-80
2022/10/07 20:59:50;;;;;;;13.33;12.13;;;16.60;99.90;;;;;;10425143;28;20636;-81
2022/10/07 21:04:52;;;;;;;15.20;13.80;;;16.50;99.90;;;;;;10441852;28;20730;-83
2022/10/07 21:09:57;;;;;;;12.97;11.83;;;16.50;99.90;;;;;;10448802;28;20662;-82
2022/10/07 21:14:59;;;;;;;13.83;12.60;;;16.50;99.90;;;;;;10424334;28;20224;-82
2022/10/07 21:20:02;;;;;;;16.97;13.60;;;16.50;99.90;;;;;;10408039;28;20214;-82
2022/10/07 21:25:06;;;;;;;13.50;12.30;;;16.50;99.90;;;;;;10429210;28;20194;-83
2022/10/07 21:30:10;;;;;;;15.13;13.80;;;16.50;99.90;;;;;;10426902;28;20217;-81
2022/10/07 21:35:12;;;;;;;14.33;12.90;;;16.50;99.90;;;;;;10420651;28;20222;-83
2022/10/07 21:40:16;;;;;;;14.30;13.00;;;16.50;99.90;;;;;;10425088;28;20312;-82
2022/10/07 21:45:18;;;;;;;13.57;12.27;;;16.40;99.90;;;;;;10415241;28;20550;-83
2022/10/07 21:50:20;;;;;;;13.47;11.73;;;16.40;99.90;;;;;;10404838;28;20245;-83
2022/10/07 21:55:23;;;;;;;15.30;12.43;;;16.40;99.90;;;;;;10428173;28;20289;-81
2022/10/07 22:00:25;;;;;;;14.73;13.33;;;16.40;99.90;;;;;;10418084;28;20244;-82
2022/10/07 22:05:29;;;;;;;15.10;12.70;;;16.40;99.90;;;;;;10426394;28;20204;-82
2022/10/07 22:10:33;;;;;;;13.13;11.80;;;16.40;99.90;;;;;;10413569;28;20229;-82
2022/10/07 22:15:37;;;;;;;13.77;12.43;;;16.30;99.90;;;;;;10390155;28;20724;-83
2022/10/07 22:20:39;;;;;;;13.57;12.47;;;16.30;99.90;;;;;;10423640;28;20591;-83
2022/10/07 22:25:43;;;;;;;14.87;13.40;;;16.30;99.90;;;;;;10423489;28;20190;-83
2022/10/07 22:30:45;;;;;;;12.40;11.40;;;16.30;99.90;;;;;;10438215;28;20304;-81
2022/10/07 22:35:47;;;;;;;22.53;13.30;;;16.30;99.90;;;;;;10420827;28;20735;-82
2022/10/07 22:40:50;;;;;;;12.80;11.80;;;16.40;99.90;;;;;;10431172;28;20221;-81
2022/10/07 22:45:56;;;;;;;13.13;11.47;;;16.40;99.90;;;;;;10420711;28;20216;-83
2022/10/07 22:51:03;;;;;;;13.37;12.07;;;16.50;99.90;;;;;;10403022;28;20593;-83
2022/10/07 22:56:10;;;;;;;13.47;12.27;;;16.50;99.90;;;;;;10420482;28;20624;-81
2022/10/07 23:01:14;;;;;;;13.90;12.67;;;16.60;99.90;;;;;;10414317;28;20229;-82
2022/10/07 23:06:18;;;;;;;13.80;12.47;;;16.60;99.90;;;;;;10418965;28;20190;-81
2022/10/07 23:11:23;;;;;;;13.70;12.53;;;16.70;99.90;;;;;;10428827;28;20250;-83
2022/10/07 23:16:28;;;;;;;13.30;12.03;;;16.70;99.90;;;;;;10433345;28;20244;-83
2022/10/07 23:21:34;;;;;;;13.20;11.80;;;16.70;99.90;;;;;;10449835;28;20222;-82
2022/10/07 23:26:37;;;;;;;13.17;12.07;;;16.80;99.90;;;;;;10431319;28;20195;-81
2022/10/07 23:31:39;;;;;;;14.00;12.60;;;16.80;99.90;;;;;;10459504;28;20236;-83
2022/10/07 23:36:41;;;;;;;15.17;13.73;;;16.80;99.90;;;;;;10449246;28;20221;-83
2022/10/07 23:41:45;;;;;;;15.27;13.60;;;16.80;99.90;;;;;;10436989;28;20263;-82
2022/10/07 23:46:47;;;;;;;15.10;13.53;;;16.80;99.90;;;;;;10441158;28;20654;-83
2022/10/07 23:51:49;;;;;;;14.00;12.70;;;16.80;99.90;;;;;;10413953;28;20225;-83
2022/10/07 23:56:53;;;;;;;14.60;13.17;;;16.80;99.90;;;;;;10459035;28;20237;-83
